Johnsonville, Illinois
Current Conditions -  °F | °C
As of 6:55 PM on Friday 28 Nov 2014 (Local Time) from KFOA Reporting Station
Clear Clear  
Wind Chill: 29°   Ceiling: Unl
Heat Index: 36°   Visibility: 10mi
Dew Point: 31°   Wind: 9mph
Humidity: 82%   Direction: 160°SSE
Pressure: 30.04"   Gusts: NA
Location:  38.52°N, 88.54°W
Report Text: KFOA 290055Z AUTO 16008KT 10SM CLR 02/M01 A3004 RMK AO2 T00201007
Loading
Personal Weather Stations






























Interactive Weather Map New forecast layout! Learn more

10-Day Weather Forecast

Advertisements
Track Severe Weather on mobile